createdAt,value
2023-01-02T00:05:31.868Z,100.00
2023-01-02T00:11:41.654Z,100.00
2023-01-02T00:14:22.146Z,100.00
2023-01-02T00:17:09.572Z,100.00
2023-01-02T00:33:02.578Z,100.00
2023-01-02T00:35:33.502Z,100.00
2023-01-02T00:38:20.773Z,100.00
2023-01-02T00:41:51.282Z,100.00
2023-01-02T00:52:46.253Z,100.00
2023-01-02T01:02:52.056Z,100.00
2023-01-02T01:05:59.261Z,100.00
2023-01-02T01:09:31.631Z,100.00
2023-01-02T01:13:11.072Z,100.00
2023-01-02T01:16:19.831Z,100.00
2023-01-02T01:23:09.083Z,100.00
2023-01-02T01:26:17.607Z,100.00
2023-01-02T01:28:55.178Z,100.00
2023-01-02T01:31:39.516Z,100.00
2023-01-02T01:34:22.238Z,100.00
2023-01-02T01:36:52.407Z,100.00
2023-01-02T01:42:14.231Z,100.00
2023-01-02T01:45:24.861Z,100.00
2023-01-02T01:48:17.381Z,100.00
2023-01-02T01:51:47.513Z,100.00
2023-01-02T01:54:54.513Z,100.00
2023-01-02T01:57:35.907Z,100.00
2023-01-02T02:00:20.607Z,100.00
2023-01-02T02:06:11.885Z,100.00
2023-01-02T02:08:59.907Z,100.00
2023-01-02T02:11:57.668Z,100.00
2023-01-02T02:14:30.072Z,100.00
2023-01-02T02:20:36.584Z,100.00
2023-01-02T02:23:40.783Z,100.00
2023-01-02T02:26:46.994Z,100.00
2023-01-02T02:30:02.518Z,100.00
2023-01-02T02:32:46.379Z,100.00
2023-01-02T02:35:25.600Z,100.00
2023-01-02T02:38:00.411Z,100.00
2023-01-02T02:40:45.692Z,100.00
2023-01-02T02:43:26.558Z,100.00
2023-01-02T02:46:12.494Z,100.00
2023-01-02T02:49:09.883Z,100.00
2023-01-02T02:51:49.190Z,100.00
2023-01-02T02:54:28.795Z,100.00
2023-01-02T02:57:02.691Z,100.00
2023-01-02T02:59:32.346Z,100.00
2023-01-02T03:02:21.192Z,100.00
2023-01-02T03:07:47.819Z,100.00
2023-01-02T03:10:24.914Z,100.00
2023-01-02T03:13:10.605Z,100.00
2023-01-02T03:15:52.495Z,100.00
2023-01-02T03:18:30.504Z,100.00
2023-01-02T03:21:09.166Z,100.00
2023-01-02T03:23:47.943Z,100.00
2023-01-02T03:29:41.089Z,100.00
2023-01-02T03:32:31.639Z,100.00
2023-01-02T03:35:25.712Z,100.00
2023-01-02T03:38:16.368Z,100.00
2023-01-02T03:40:50.527Z,100.00
2023-01-02T03:43:45.104Z,100.00
2023-01-02T03:46:20.393Z,100.00
2023-01-02T03:51:58.690Z,100.00
2023-01-02T03:54:41.118Z,100.00
2023-01-02T03:57:19.449Z,100.00
2023-01-02T04:00:17.774Z,100.00
2023-01-02T04:03:14.890Z,100.00
2023-01-02T04:08:18.611Z,100.00
2023-01-02T04:11:12.886Z,100.00
2023-01-02T04:13:49.383Z,100.00
2023-01-02T04:16:25.983Z,100.00
2023-01-02T04:19:06.061Z,100.00
2023-01-02T04:22:19.004Z,100.00
2023-01-02T04:25:18.504Z,100.00
2023-01-02T04:28:10.104Z,100.00
2023-01-02T04:30:56.554Z,100.00
2023-01-02T04:34:13.095Z,100.00
2023-01-02T04:36:53.744Z,100.00
2023-01-02T04:39:36.790Z,100.00
2023-01-02T04:42:15.223Z,100.00
2023-01-02T04:44:46.825Z,100.00
2023-01-02T04:47:22.028Z,100.00
2023-01-02T04:49:50.131Z,100.00
2023-01-02T04:52:18.047Z,100.00
2023-01-02T04:54:49.308Z,100.00
2023-01-02T04:57:23.733Z,100.00
2023-01-02T05:00:00.700Z,100.00
2023-01-02T05:02:44.226Z,100.00
2023-01-02T05:05:27.940Z,100.00
2023-01-02T05:07:57.137Z,100.00
2023-01-02T05:10:57.739Z,100.00
2023-01-02T05:13:30.158Z,100.00
2023-01-02T05:16:01.239Z,100.00
2023-01-02T05:18:38.693Z,100.00
2023-01-02T05:21:30.318Z,100.00
2023-01-02T05:24:07.372Z,100.00
2023-01-02T05:27:09.151Z,100.00
2023-01-02T05:29:41.584Z,100.00
2023-01-02T05:32:24.234Z,100.00
2023-01-02T05:34:59.653Z,100.00
2023-01-02T05:37:52.952Z,100.00
2023-01-02T05:40:49.047Z,100.00
2023-01-02T05:46:44.869Z,100.00
2023-01-02T05:49:14.603Z,100.00
2023-01-02T05:51:42.518Z,100.00
2023-01-02T05:54:10.630Z,100.00
2023-01-02T05:56:38.530Z,100.00
2023-01-02T05:59:09.249Z,100.00
2023-01-02T06:01:39.690Z,100.00
2023-01-02T06:04:07.708Z,100.00
2023-01-02T06:06:39.335Z,100.00
2023-01-02T06:09:11.140Z,100.00
2023-01-02T06:11:39.262Z,100.00
2023-01-02T06:14:13.033Z,100.00
2023-01-02T06:16:41.079Z,100.00
2023-01-02T06:19:09.865Z,100.00
2023-01-02T06:21:40.619Z,100.00
2023-01-02T06:24:13.793Z,100.00
2023-01-02T06:26:41.965Z,100.00
2023-01-02T06:29:11.063Z,100.00
2023-01-02T06:31:46.051Z,100.00
2023-01-02T06:34:17.774Z,100.00
2023-01-02T06:36:47.031Z,100.00
2023-01-02T06:39:14.884Z,100.00
2023-01-02T06:41:42.741Z,100.00
2023-01-02T06:44:13.513Z,100.00
2023-01-02T06:46:41.448Z,100.00
2023-01-02T06:49:09.325Z,100.00
2023-01-02T06:51:38.075Z,100.00
2023-01-02T06:54:08.986Z,100.00
2023-01-02T06:56:37.133Z,100.00
2023-01-02T06:59:05.049Z,100.00
2023-01-02T07:01:33.977Z,100.00
2023-01-02T07:04:02.112Z,100.00
2023-01-02T07:06:46.487Z,100.00
2023-01-02T07:09:15.879Z,100.00
2023-01-02T07:11:50.258Z,100.00
2023-01-02T07:14:18.640Z,100.00
2023-01-02T07:16:47.509Z,100.00
2023-01-02T07:19:15.504Z,100.00
2023-01-02T07:21:47.134Z,100.00
2023-01-02T07:24:21.231Z,100.00
2023-01-02T07:26:55.810Z,100.00
2023-01-02T07:32:10.462Z,100.00
2023-01-02T07:35:03.127Z,100.00
2023-01-02T07:37:31.029Z,100.00
2023-01-02T07:40:00.339Z,100.00
2023-01-02T07:42:29.332Z,100.00
2023-01-02T07:45:01.157Z,100.00
2023-01-02T07:47:30.179Z,100.00
2023-01-02T07:50:01.229Z,100.00
2023-01-02T07:52:29.276Z,100.00
2023-01-02T07:54:57.157Z,100.00
2023-01-02T07:57:26.462Z,100.00
2023-01-02T07:59:54.969Z,100.00
2023-01-02T08:02:22.962Z,100.00
2023-01-02T08:04:50.976Z,100.00
2023-01-02T08:07:19.060Z,100.00
2023-01-02T08:09:51.697Z,100.00
2023-01-02T08:12:21.256Z,100.00
2023-01-02T08:14:58.697Z,100.00
2023-01-02T08:17:26.587Z,100.00
2023-01-02T08:19:54.928Z,100.00
2023-01-02T08:22:22.964Z,100.00
2023-01-02T08:24:58.461Z,100.00
2023-01-02T08:27:29.026Z,100.00
2023-01-02T08:29:58.375Z,100.00
2023-01-02T08:32:26.605Z,100.00
2023-01-02T08:34:54.645Z,100.00
2023-01-02T08:37:22.705Z,100.00
2023-01-02T08:39:51.265Z,100.00
2023-01-02T08:42:21.943Z,100.00
2023-01-02T08:44:49.878Z,100.00
2023-01-02T08:47:19.154Z,100.00
2023-01-02T08:49:47.218Z,100.00
2023-01-02T08:52:16.741Z,100.00
2023-01-02T08:54:44.673Z,100.00
2023-01-02T08:57:14.957Z,100.00
2023-01-02T08:59:42.900Z,100.00
2023-01-02T09:02:14.972Z,100.00
2023-01-02T09:04:44.441Z,100.00
2023-01-02T09:07:12.292Z,100.00
2023-01-02T09:09:40.294Z,100.00
2023-01-02T09:12:08.340Z,100.00
2023-01-02T09:14:36.224Z,100.00
2023-01-02T09:17:04.173Z,100.00
2023-01-02T09:19:32.049Z,100.00
2023-01-02T09:22:02.352Z,100.00
2023-01-02T09:24:30.188Z,100.00
2023-01-02T09:26:59.072Z,100.00
2023-01-02T09:29:26.924Z,100.00
2023-01-02T09:31:54.956Z,100.00
2023-01-02T09:34:22.871Z,100.00
2023-01-02T09:36:50.902Z,100.00
2023-01-02T09:39:20.248Z,100.00
2023-01-02T09:41:51.523Z,100.00
2023-01-02T09:44:24.362Z,100.00
2023-01-02T09:47:00.293Z,100.00
2023-01-02T09:49:32.300Z,100.00
2023-01-02T09:52:00.499Z,100.00
2023-01-02T09:54:32.988Z,100.00
2023-01-02T09:57:34.939Z,100.00
2023-01-02T10:00:09.470Z,100.00
2023-01-02T10:02:50.817Z,100.00
2023-01-02T10:06:04.221Z,100.00
2023-01-02T10:08:42.980Z,100.00
2023-01-02T10:11:27.946Z,100.00
2023-01-02T10:14:19.376Z,100.00
2023-01-02T10:16:51.709Z,100.00
2023-01-02T10:19:25.003Z,100.00
2023-01-02T10:22:00.074Z,100.00
2023-01-02T10:24:44.663Z,100.00
2023-01-02T10:27:20.897Z,100.00
2023-01-02T10:30:01.227Z,100.00
2023-01-02T10:32:31.746Z,100.00
2023-01-02T10:35:11.760Z,100.00
2023-01-02T10:37:41.648Z,100.00
2023-01-02T10:40:16.329Z,100.00
2023-01-02T10:42:59.405Z,100.00
2023-01-02T10:45:37.239Z,98.87
2023-01-02T10:48:06.270Z,96.17
2023-01-02T10:50:42.142Z,95.92
2023-01-02T10:53:23.874Z,96.83
2023-01-02T10:55:52.207Z,99.19
2023-01-02T10:58:25.412Z,97.85
2023-01-02T11:01:06.455Z,95.69
2023-01-02T11:03:35.577Z,94.60
2023-01-02T11:06:25.678Z,93.56
2023-01-02T11:08:58.531Z,91.99
2023-01-02T11:11:29.270Z,92.32
2023-01-02T11:14:08.485Z,91.57
2023-01-02T11:16:40.009Z,90.70
2023-01-02T11:19:08.910Z,87.51
2023-01-02T11:21:40.496Z,85.87
2023-01-02T11:24:18.348Z,85.89
2023-01-02T11:26:48.476Z,85.72
2023-01-02T11:29:23.542Z,84.66
2023-01-02T11:31:57.936Z,83.14
2023-01-02T11:34:34.204Z,81.82
2023-01-02T11:37:07.405Z,82.07
2023-01-02T11:39:36.565Z,80.71
2023-01-02T11:42:38.200Z,78.27
2023-01-02T11:45:09.741Z,78.02
2023-01-02T11:47:41.374Z,75.90
2023-01-02T11:50:14.733Z,77.17
2023-01-02T11:52:52.448Z,74.56
2023-01-02T11:55:33.099Z,74.87
2023-01-02T11:58:07.729Z,74.83
2023-01-02T12:00:43.047Z,75.63
2023-01-02T12:03:18.877Z,75.09
2023-01-02T12:06:10.832Z,72.92
2023-01-02T12:08:52.041Z,73.80
2023-01-02T12:11:31.729Z,71.91
2023-01-02T12:14:11.698Z,71.90
2023-01-02T12:16:47.768Z,70.71
2023-01-02T12:19:37.169Z,71.16
2023-01-02T12:22:21.527Z,70.88
2023-01-02T12:25:14.943Z,69.86
2023-01-02T12:27:51.961Z,70.24
2023-01-02T12:30:21.685Z,71.48
2023-01-02T12:33:11.617Z,72.13
2023-01-02T12:36:15.899Z,69.68
2023-01-02T12:39:01.837Z,70.57
2023-01-02T12:41:35.812Z,70.09
2023-01-02T12:44:40.294Z,68.67
2023-01-02T12:47:38.267Z,67.43
2023-01-02T12:50:24.563Z,67.67
2023-01-02T12:53:05.054Z,67.74
2023-01-02T12:55:47.323Z,68.45
2023-01-02T12:58:29.921Z,68.36
2023-01-02T13:01:07.432Z,67.87
2023-01-02T13:03:49.305Z,67.23
2023-01-02T13:06:45.514Z,66.99
2023-01-02T13:09:21.748Z,67.37
2023-01-02T13:11:56.497Z,67.36
2023-01-02T13:14:31.087Z,67.84
2023-01-02T13:17:14.904Z,67.74
2023-01-02T13:19:49.791Z,68.16
2023-01-02T13:22:29.025Z,68.02
2023-01-02T13:24:58.108Z,67.71
2023-01-02T13:27:26.645Z,68.08
2023-01-02T13:29:54.815Z,68.13
2023-01-02T13:32:29.073Z,67.58
2023-01-02T13:34:59.771Z,67.11
2023-01-02T13:37:30.878Z,66.91
2023-01-02T13:40:01.348Z,67.17
2023-01-02T13:42:50.111Z,66.80
2023-01-02T13:45:20.407Z,67.06
2023-01-02T13:47:52.741Z,67.47
2023-01-02T13:50:26.465Z,66.25
2023-01-02T13:53:24.961Z,67.11
2023-01-02T13:56:12.571Z,67.51
2023-01-02T13:58:47.225Z,67.36
2023-01-02T14:01:49.980Z,67.48
2023-01-02T14:04:29.169Z,68.05
2023-01-02T14:07:17.072Z,68.42
2023-01-02T14:10:09.136Z,69.70
2023-01-02T14:12:43.790Z,69.27
2023-01-02T14:15:18.940Z,70.40
2023-01-02T14:17:54.479Z,71.08
2023-01-02T14:20:24.630Z,71.64
2023-01-02T14:22:54.960Z,72.89
2023-01-02T14:25:24.772Z,73.25
2023-01-02T14:27:54.928Z,73.73
2023-01-02T14:30:25.441Z,74.67
2023-01-02T14:32:54.644Z,74.45
2023-01-02T14:35:31.009Z,75.15
2023-01-02T14:38:10.193Z,76.00
2023-01-02T14:40:42.722Z,77.61
2023-01-02T14:43:32.930Z,79.09
2023-01-02T14:46:09.105Z,79.63
2023-01-02T14:48:40.553Z,80.33
2023-01-02T14:51:14.050Z,81.08
2023-01-02T14:53:50.129Z,81.69
2023-01-02T14:56:22.834Z,82.93
2023-01-02T14:58:52.809Z,83.80
2023-01-02T15:01:43.370Z,84.41
2023-01-02T15:07:42.695Z,87.13
2023-01-02T15:10:15.836Z,87.64
2023-01-02T15:13:07.260Z,88.89
2023-01-02T15:15:40.598Z,90.78
2023-01-02T15:18:16.729Z,92.13
2023-01-02T15:20:44.577Z,92.90
2023-01-02T15:23:21.063Z,92.66
2023-01-02T15:25:49.622Z,92.63
2023-01-02T15:28:27.729Z,92.91
2023-01-02T15:31:03.727Z,93.27
2023-01-02T15:33:33.689Z,94.05
2023-01-02T15:36:06.134Z,94.63
2023-01-02T15:38:34.532Z,95.64
2023-01-02T15:41:02.839Z,96.13
2023-01-02T15:43:53.052Z,97.10
2023-01-02T15:46:21.579Z,97.35
2023-01-02T15:48:50.628Z,97.57
2023-01-02T15:51:39.648Z,98.19
2023-01-02T15:54:14.929Z,98.72
2023-01-02T15:56:45.877Z,99.60
2023-01-02T15:59:29.292Z,100.00
2023-01-02T16:01:57.738Z,100.00
2023-01-02T16:04:27.754Z,100.00
2023-01-02T16:06:57.347Z,100.00
2023-01-02T16:09:28.356Z,100.00
2023-01-02T16:11:58.786Z,100.00
2023-01-02T16:14:36.400Z,100.00
2023-01-02T16:17:08.566Z,100.00
2023-01-02T16:19:39.864Z,100.00
2023-01-02T16:22:19.055Z,100.00
2023-01-02T16:24:49.597Z,100.00
2023-01-02T16:27:26.320Z,100.00
2023-01-02T16:29:56.366Z,100.00
2023-01-02T16:32:30.033Z,100.00
2023-01-02T16:35:03.215Z,100.00
2023-01-02T16:37:36.962Z,100.00
2023-01-02T16:41:01.492Z,100.00
2023-01-02T16:43:27.745Z,100.00
2023-01-02T16:45:58.136Z,100.00
2023-01-02T16:48:29.822Z,100.00
2023-01-02T16:50:59.571Z,100.00
2023-01-02T16:53:31.119Z,100.00
2023-01-02T16:55:59.058Z,100.00
2023-01-02T16:58:27.213Z,100.00
2023-01-02T17:00:57.312Z,100.00
2023-01-02T17:03:27.158Z,100.00
2023-01-02T17:06:01.233Z,100.00
2023-01-02T17:08:38.627Z,100.00
2023-01-02T17:11:06.733Z,100.00
2023-01-02T17:13:34.694Z,100.00
2023-01-02T17:16:04.419Z,100.00
2023-01-02T17:18:34.664Z,100.00
2023-01-02T17:21:02.607Z,100.00
2023-01-02T17:23:30.538Z,100.00
2023-01-02T17:26:01.856Z,100.00
2023-01-02T17:28:29.741Z,100.00
2023-01-02T17:30:59.113Z,100.00
2023-01-02T17:33:28.318Z,100.00
2023-01-02T17:35:59.056Z,100.00
2023-01-02T17:38:26.882Z,100.00
2023-01-02T17:40:58.978Z,100.00
2023-01-02T17:43:27.280Z,100.00
2023-01-02T17:45:55.223Z,100.00
2023-01-02T17:48:25.061Z,100.00
2023-01-02T17:50:54.939Z,100.00
2023-01-02T17:53:22.997Z,100.00
2023-01-02T17:56:21.869Z,100.00
2023-01-02T17:58:43.108Z,100.00
2023-01-02T18:01:15.933Z,100.00
2023-01-02T18:03:44.002Z,100.00
2023-01-02T18:06:13.295Z,100.00
2023-01-02T18:08:41.258Z,100.00
2023-01-02T18:11:11.140Z,100.00
2023-01-02T18:13:42.426Z,100.00
2023-01-02T18:16:16.415Z,100.00
2023-01-02T18:18:45.777Z,100.00
2023-01-02T18:21:17.034Z,100.00
2023-01-02T18:23:46.479Z,100.00
2023-01-02T18:26:16.492Z,100.00
2023-01-02T18:28:53.762Z,100.00
2023-01-02T18:31:22.615Z,100.00
2023-01-02T18:34:45.598Z,100.00
2023-01-02T18:37:18.421Z,100.00
2023-01-02T18:39:46.244Z,100.00
2023-01-02T18:42:16.102Z,100.00
2023-01-02T18:44:44.915Z,100.00
2023-01-02T18:47:25.915Z,100.00
2023-01-02T18:49:55.107Z,100.00
2023-01-02T18:52:27.792Z,100.00
2023-01-02T18:55:00.304Z,100.00
2023-01-02T18:57:32.880Z,100.00
2023-01-02T19:00:14.771Z,100.00
2023-01-02T19:02:56.955Z,100.00
2023-01-02T19:05:28.373Z,100.00
2023-01-02T19:08:06.041Z,100.00
2023-01-02T19:10:37.353Z,100.00
2023-01-02T19:13:07.881Z,100.00
2023-01-02T19:15:42.890Z,100.00
2023-01-02T19:18:27.270Z,100.00
2023-01-02T19:21:00.204Z,100.00
2023-01-02T19:23:32.688Z,100.00
2023-01-02T19:26:23.281Z,100.00
2023-01-02T19:28:56.464Z,100.00
2023-01-02T19:31:24.692Z,100.00
2023-01-02T19:33:57.244Z,100.00
2023-01-02T19:36:35.936Z,100.00
2023-01-02T19:39:24.574Z,100.00
2023-01-02T19:42:10.415Z,100.00
2023-01-02T19:44:38.341Z,100.00
2023-01-02T19:47:06.789Z,100.00
2023-01-02T19:49:34.782Z,100.00
2023-01-02T19:52:02.750Z,100.00
2023-01-02T19:54:32.007Z,100.00
2023-01-02T19:57:00.042Z,100.00
2023-01-02T19:59:29.233Z,100.00
2023-01-02T20:01:57.506Z,100.00
2023-01-02T20:04:25.593Z,100.00
2023-01-02T20:06:53.580Z,100.00
2023-01-02T20:09:25.538Z,100.00
2023-01-02T20:12:12.313Z,100.00
2023-01-02T20:14:42.160Z,100.00
2023-01-02T20:17:10.489Z,100.00
2023-01-02T20:19:40.444Z,100.00
2023-01-02T20:22:08.343Z,100.00
2023-01-02T20:24:36.579Z,100.00
2023-01-02T20:27:06.776Z,100.00
2023-01-02T20:29:34.691Z,100.00
2023-01-02T20:32:02.567Z,100.00
2023-01-02T20:34:30.516Z,100.00
2023-01-02T20:36:58.444Z,100.00
2023-01-02T20:39:26.357Z,100.00
2023-01-02T20:41:54.224Z,100.00
2023-01-02T20:44:23.684Z,100.00
2023-01-02T20:46:51.788Z,100.00
2023-01-02T20:49:19.758Z,100.00
2023-01-02T20:51:47.711Z,100.00
2023-01-02T20:54:16.041Z,100.00
2023-01-02T20:56:43.914Z,100.00
2023-01-02T20:59:11.779Z,100.00
2023-01-02T21:01:42.377Z,100.00
2023-01-02T21:04:10.489Z,100.00
2023-01-02T21:06:39.779Z,100.00
2023-01-02T21:09:07.738Z,100.00
2023-01-02T21:11:35.912Z,100.00
2023-01-02T21:14:03.859Z,100.00
2023-01-02T21:16:33.173Z,100.00
2023-01-02T21:19:03.415Z,100.00
2023-01-02T21:21:31.297Z,100.00
2023-01-02T21:23:59.130Z,100.00
2023-01-02T21:26:26.956Z,100.00
2023-01-02T21:28:54.973Z,100.00
2023-01-02T21:31:22.963Z,100.00
2023-01-02T21:33:51.036Z,100.00
2023-01-02T21:36:21.393Z,100.00
2023-01-02T21:38:49.213Z,100.00
2023-01-02T21:41:34.832Z,100.00
2023-01-02T21:44:02.722Z,100.00
2023-01-02T21:46:30.567Z,100.00
2023-01-02T21:48:58.415Z,100.00
2023-01-02T21:51:32.795Z,100.00
2023-01-02T21:54:02.453Z,100.00
2023-01-02T21:56:30.578Z,100.00
2023-01-02T21:58:58.443Z,100.00
2023-01-02T22:01:26.371Z,100.00
2023-01-02T22:03:57.024Z,100.00
2023-01-02T22:06:25.845Z,100.00
2023-01-02T22:08:55.065Z,100.00
2023-01-02T22:11:42.286Z,100.00
2023-01-02T22:14:10.105Z,100.00
2023-01-02T22:16:38.221Z,100.00
2023-01-02T22:19:06.154Z,100.00
2023-01-02T22:21:33.998Z,100.00
2023-01-02T22:24:03.365Z,100.00
2023-01-02T22:26:31.646Z,100.00
2023-01-02T22:28:59.804Z,100.00
2023-01-02T22:31:27.770Z,100.00
2023-01-02T22:33:56.814Z,100.00
2023-01-02T22:36:26.236Z,100.00
2023-01-02T22:39:26.537Z,100.00
2023-01-02T22:41:46.833Z,100.00
2023-01-02T22:44:17.479Z,100.00
2023-01-02T22:46:48.956Z,100.00
2023-01-02T22:49:19.581Z,100.00
2023-01-02T22:52:06.399Z,100.00
2023-01-02T22:54:35.076Z,100.00
2023-01-02T22:57:10.052Z,100.00
2023-01-02T22:59:37.923Z,100.00
2023-01-02T23:02:06.312Z,100.00
2023-01-02T23:04:34.253Z,100.00
2023-01-02T23:09:50.859Z,100.00
2023-01-02T23:12:20.071Z,100.00
2023-01-02T23:14:47.958Z,100.00
2023-01-02T23:17:33.363Z,100.00
2023-01-02T23:20:01.458Z,100.00
2023-01-02T23:22:29.527Z,100.00
2023-01-02T23:24:57.445Z,100.00
2023-01-02T23:27:26.654Z,100.00
2023-01-02T23:29:54.516Z,100.00
2023-01-02T23:32:22.410Z,100.00
2023-01-02T23:34:50.240Z,100.00
2023-01-02T23:37:18.145Z,100.00
2023-01-02T23:39:45.984Z,100.00
2023-01-02T23:42:13.782Z,100.00
2023-01-02T23:44:44.065Z,100.00
2023-01-02T23:47:17.163Z,100.00
2023-01-02T23:49:46.832Z,100.00
2023-01-02T23:52:14.918Z,100.00
2023-01-02T23:54:42.803Z,100.00
2023-01-02T23:57:13.443Z,100.00
2023-01-02T23:59:42.646Z,100.00
